sensor_id;sensor_type;location;lat;lon;timestamp;temperature;humidity
3281;DHT22;1652;51.318;6.202;2023-08-21T00:00:42;19.70;99.90
3281;DHT22;1652;51.318;6.202;2023-08-21T00:03:09;19.60;99.90
3281;DHT22;1652;51.318;6.202;2023-08-21T00:05:36;19.60;99.90
3281;DHT22;1652;51.318;6.202;2023-08-21T00:10:46;19.60;99.90
3281;DHT22;1652;51.318;6.202;2023-08-21T00:13:14;19.50;99.90
3281;DHT22;1652;51.318;6.202;2023-08-21T00:15:41;19.70;99.90
3281;DHT22;1652;51.318;6.202;2023-08-21T00:18:08;19.60;99.90
3281;DHT22;1652;51.318;6.202;2023-08-21T00:20:34;19.60;99.90
3281;DHT22;1652;51.318;6.202;2023-08-21T00:23:01;19.60;99.90
3281;DHT22;1652;51.318;6.202;2023-08-21T00:25:29;19.50;99.90
3281;DHT22;1652;51.318;6.202;2023-08-21T00:27:55;19.50;99.90
3281;DHT22;1652;51.318;6.202;2023-08-21T00:30:22;19.40;99.90
3281;DHT22;1652;51.318;6.202;2023-08-21T00:32:49;19.30;99.90
3281;DHT22;1652;51.318;6.202;2023-08-21T00:35:16;19.40;99.90
3281;DHT22;1652;51.318;6.202;2023-08-21T00:37:43;19.30;99.90
3281;DHT22;1652;51.318;6.202;2023-08-21T00:40:10;19.40;99.90
3281;DHT22;1652;51.318;6.202;2023-08-21T00:42:37;19.50;99.90
3281;DHT22;1652;51.318;6.202;2023-08-21T00:45:05;19.40;99.90
3281;DHT22;1652;51.318;6.202;2023-08-21T00:47:35;19.40;99.90
3281;DHT22;1652;51.318;6.202;2023-08-21T00:50:03;19.40;99.90
3281;DHT22;1652;51.318;6.202;2023-08-21T00:52:30;19.30;99.90
3281;DHT22;1652;51.318;6.202;2023-08-21T00:54:57;19.40;99.90
3281;DHT22;1652;51.318;6.202;2023-08-21T00:57:25;19.50;99.90
3281;DHT22;1652;51.318;6.202;2023-08-21T00:59:53;19.40;99.90
3281;DHT22;1652;51.318;6.202;2023-08-21T01:02:20;19.30;99.90
3281;DHT22;1652;51.318;6.202;2023-08-21T01:04:47;19.30;99.90
3281;DHT22;1652;51.318;6.202;2023-08-21T01:07:14;19.20;99.90
3281;DHT22;1652;51.318;6.202;2023-08-21T01:10:15;19.20;99.90
3281;DHT22;1652;51.318;6.202;2023-08-21T01:13:01;19.30;99.90
3281;DHT22;1652;51.318;6.202;2023-08-21T01:15:30;19.00;99.90
3281;DHT22;1652;51.318;6.202;2023-08-21T01:17:57;18.90;99.90
3281;DHT22;1652;51.318;6.202;2023-08-21T01:20:25;18.90;99.90
3281;DHT22;1652;51.318;6.202;2023-08-21T01:22:52;18.90;99.90
3281;DHT22;1652;51.318;6.202;2023-08-21T01:25:19;18.90;99.90
3281;DHT22;1652;51.318;6.202;2023-08-21T01:27:48;18.80;99.90
3281;DHT22;1652;51.318;6.202;2023-08-21T01:30:16;18.90;99.90
3281;DHT22;1652;51.318;6.202;2023-08-21T01:33:06;18.80;99.90
3281;DHT22;1652;51.318;6.202;2023-08-21T01:35:35;18.90;99.90
3281;DHT22;1652;51.318;6.202;2023-08-21T01:38:03;19.00;99.90
3281;DHT22;1652;51.318;6.202;2023-08-21T01:40:30;18.90;99.90
3281;DHT22;1652;51.318;6.202;2023-08-21T01:42:57;18.80;99.90
3281;DHT22;1652;51.318;6.202;2023-08-21T01:45:24;18.80;99.90
3281;DHT22;1652;51.318;6.202;2023-08-21T01:47:51;18.70;99.90
3281;DHT22;1652;51.318;6.202;2023-08-21T01:50:18;18.70;99.90
3281;DHT22;1652;51.318;6.202;2023-08-21T01:52:45;18.60;99.90
3281;DHT22;1652;51.318;6.202;2023-08-21T01:55:12;18.40;99.90
3281;DHT22;1652;51.318;6.202;2023-08-21T01:57:39;18.30;99.90
3281;DHT22;1652;51.318;6.202;2023-08-21T02:00:06;18.40;99.90
3281;DHT22;1652;51.318;6.202;2023-08-21T02:02:34;18.30;99.90
3281;DHT22;1652;51.318;6.202;2023-08-21T02:05:01;18.50;99.90
3281;DHT22;1652;51.318;6.202;2023-08-21T02:07:27;18.70;99.90
3281;DHT22;1652;51.318;6.202;2023-08-21T02:09:54;18.60;99.90
3281;DHT22;1652;51.318;6.202;2023-08-21T02:12:21;18.70;99.90
3281;DHT22;1652;51.318;6.202;2023-08-21T02:14:48;18.60;99.90
3281;DHT22;1652;51.318;6.202;2023-08-21T02:17:15;18.60;99.90
3281;DHT22;1652;51.318;6.202;2023-08-21T02:19:42;18.60;99.90
3281;DHT22;1652;51.318;6.202;2023-08-21T02:22:09;18.60;99.90
3281;DHT22;1652;51.318;6.202;2023-08-21T02:24:35;18.60;99.90
3281;DHT22;1652;51.318;6.202;2023-08-21T02:27:02;18.60;99.90
3281;DHT22;1652;51.318;6.202;2023-08-21T02:29:30;18.70;99.90
3281;DHT22;1652;51.318;6.202;2023-08-21T02:31:56;18.70;99.90
3281;DHT22;1652;51.318;6.202;2023-08-21T02:34:23;18.60;99.90
3281;DHT22;1652;51.318;6.202;2023-08-21T02:36:50;18.70;99.90
3281;DHT22;1652;51.318;6.202;2023-08-21T02:39:17;18.70;99.90
3281;DHT22;1652;51.318;6.202;2023-08-21T02:41:44;18.60;99.90
3281;DHT22;1652;51.318;6.202;2023-08-21T02:44:11;18.50;99.90
3281;DHT22;1652;51.318;6.202;2023-08-21T02:46:38;18.50;99.90
3281;DHT22;1652;51.318;6.202;2023-08-21T02:49:05;18.50;99.90
3281;DHT22;1652;51.318;6.202;2023-08-21T02:51:32;18.30;99.90
3281;DHT22;1652;51.318;6.202;2023-08-21T02:53:59;18.20;99.90
3281;DHT22;1652;51.318;6.202;2023-08-21T02:56:26;18.10;99.90
3281;DHT22;1652;51.318;6.202;2023-08-21T02:58:53;18.10;99.90
3281;DHT22;1652;51.318;6.202;2023-08-21T03:01:19;18.00;99.90
3281;DHT22;1652;51.318;6.202;2023-08-21T03:03:46;17.80;99.90
3281;DHT22;1652;51.318;6.202;2023-08-21T03:06:13;17.80;99.90
3281;DHT22;1652;51.318;6.202;2023-08-21T03:08:40;17.70;99.90
3281;DHT22;1652;51.318;6.202;2023-08-21T03:11:10;17.80;99.90
3281;DHT22;1652;51.318;6.202;2023-08-21T03:13:36;17.80;99.90
3281;DHT22;1652;51.318;6.202;2023-08-21T03:16:03;17.90;99.90
3281;DHT22;1652;51.318;6.202;2023-08-21T03:18:31;18.00;99.90
3281;DHT22;1652;51.318;6.202;2023-08-21T03:20:58;18.00;99.90
3281;DHT22;1652;51.318;6.202;2023-08-21T03:23:25;18.00;99.90
3281;DHT22;1652;51.318;6.202;2023-08-21T03:25:52;18.10;99.90
3281;DHT22;1652;51.318;6.202;2023-08-21T03:28:19;18.10;99.90
3281;DHT22;1652;51.318;6.202;2023-08-21T03:30:46;18.10;99.90
3281;DHT22;1652;51.318;6.202;2023-08-21T03:33:13;18.00;99.90
3281;DHT22;1652;51.318;6.202;2023-08-21T03:35:40;18.00;99.90
3281;DHT22;1652;51.318;6.202;2023-08-21T03:38:07;18.00;99.90
3281;DHT22;1652;51.318;6.202;2023-08-21T03:40:34;18.00;99.90
3281;DHT22;1652;51.318;6.202;2023-08-21T03:43:01;17.90;99.90
3281;DHT22;1652;51.318;6.202;2023-08-21T03:45:28;17.80;99.90
3281;DHT22;1652;51.318;6.202;2023-08-21T03:47:54;17.80;99.90
3281;DHT22;1652;51.318;6.202;2023-08-21T03:50:21;17.90;99.90
3281;DHT22;1652;51.318;6.202;2023-08-21T03:52:48;17.90;99.90
3281;DHT22;1652;51.318;6.202;2023-08-21T03:55:15;17.90;99.90
3281;DHT22;1652;51.318;6.202;2023-08-21T03:57:42;17.90;99.90
3281;DHT22;1652;51.318;6.202;2023-08-21T04:00:09;17.90;99.90
3281;DHT22;1652;51.318;6.202;2023-08-21T04:02:36;17.90;99.90
3281;DHT22;1652;51.318;6.202;2023-08-21T04:05:04;17.80;99.90
3281;DHT22;1652;51.318;6.202;2023-08-21T04:07:31;17.80;99.90
3281;DHT22;1652;51.318;6.202;2023-08-21T04:09:58;17.80;99.90
3281;DHT22;1652;51.318;6.202;2023-08-21T04:12:24;17.80;99.90
3281;DHT22;1652;51.318;6.202;2023-08-21T04:14:51;17.80;99.90
3281;DHT22;1652;51.318;6.202;2023-08-21T04:17:24;17.80;99.90
3281;DHT22;1652;51.318;6.202;2023-08-21T04:19:51;17.80;99.90
3281;DHT22;1652;51.318;6.202;2023-08-21T04:22:18;17.90;99.90
3281;DHT22;1652;51.318;6.202;2023-08-21T04:24:45;17.90;99.90
3281;DHT22;1652;51.318;6.202;2023-08-21T04:27:12;18.10;99.90
3281;DHT22;1652;51.318;6.202;2023-08-21T04:29:39;18.10;99.90
3281;DHT22;1652;51.318;6.202;2023-08-21T04:32:06;18.20;99.90
3281;DHT22;1652;51.318;6.202;2023-08-21T04:34:33;18.20;99.90
3281;DHT22;1652;51.318;6.202;2023-08-21T04:37:00;18.20;99.90
3281;DHT22;1652;51.318;6.202;2023-08-21T04:39:27;18.20;99.90
3281;DHT22;1652;51.318;6.202;2023-08-21T04:41:54;18.20;99.90
3281;DHT22;1652;51.318;6.202;2023-08-21T04:44:21;18.20;99.90
3281;DHT22;1652;51.318;6.202;2023-08-21T04:46:48;18.20;99.90
3281;DHT22;1652;51.318;6.202;2023-08-21T04:49:17;18.30;99.90
3281;DHT22;1652;51.318;6.202;2023-08-21T04:51:44;18.50;99.90
3281;DHT22;1652;51.318;6.202;2023-08-21T04:54:10;18.60;99.90
3281;DHT22;1652;51.318;6.202;2023-08-21T04:56:37;18.60;99.90
3281;DHT22;1652;51.318;6.202;2023-08-21T04:59:04;18.60;99.90
3281;DHT22;1652;51.318;6.202;2023-08-21T05:01:31;18.70;99.90
3281;DHT22;1652;51.318;6.202;2023-08-21T05:03:58;18.60;99.90
3281;DHT22;1652;51.318;6.202;2023-08-21T05:06:25;18.60;99.90
3281;DHT22;1652;51.318;6.202;2023-08-21T05:08:52;18.60;99.90
3281;DHT22;1652;51.318;6.202;2023-08-21T05:11:19;18.70;99.90
3281;DHT22;1652;51.318;6.202;2023-08-21T05:13:46;18.70;99.90
3281;DHT22;1652;51.318;6.202;2023-08-21T05:16:13;18.70;99.90
3281;DHT22;1652;51.318;6.202;2023-08-21T05:18:40;18.90;99.90
3281;DHT22;1652;51.318;6.202;2023-08-21T05:21:07;18.90;99.90
3281;DHT22;1652;51.318;6.202;2023-08-21T05:23:34;18.90;99.90
3281;DHT22;1652;51.318;6.202;2023-08-21T05:26:01;18.90;99.90
3281;DHT22;1652;51.318;6.202;2023-08-21T05:28:28;19.10;99.90
3281;DHT22;1652;51.318;6.202;2023-08-21T05:30:55;19.20;99.90
3281;DHT22;1652;51.318;6.202;2023-08-21T05:33:21;19.40;99.90
3281;DHT22;1652;51.318;6.202;2023-08-21T05:35:48;19.50;99.90
3281;DHT22;1652;51.318;6.202;2023-08-21T05:38:15;19.50;99.90
3281;DHT22;1652;51.318;6.202;2023-08-21T05:40:42;19.50;99.90
3281;DHT22;1652;51.318;6.202;2023-08-21T05:43:09;19.50;99.90
3281;DHT22;1652;51.318;6.202;2023-08-21T05:45:36;19.50;99.90
3281;DHT22;1652;51.318;6.202;2023-08-21T05:48:03;19.50;99.90
3281;DHT22;1652;51.318;6.202;2023-08-21T05:50:30;19.40;99.90
3281;DHT22;1652;51.318;6.202;2023-08-21T05:52:57;19.50;99.90
3281;DHT22;1652;51.318;6.202;2023-08-21T05:55:24;19.70;99.90
3281;DHT22;1652;51.318;6.202;2023-08-21T05:57:51;19.50;99.90
3281;DHT22;1652;51.318;6.202;2023-08-21T06:00:19;19.60;99.90
3281;DHT22;1652;51.318;6.202;2023-08-21T06:02:46;19.70;99.90
3281;DHT22;1652;51.318;6.202;2023-08-21T06:05:13;19.80;99.90
3281;DHT22;1652;51.318;6.202;2023-08-21T06:07:40;19.90;99.90
3281;DHT22;1652;51.318;6.202;2023-08-21T06:10:07;20.10;99.90
3281;DHT22;1652;51.318;6.202;2023-08-21T06:12:35;20.30;99.90
3281;DHT22;1652;51.318;6.202;2023-08-21T06:15:02;20.40;99.90
3281;DHT22;1652;51.318;6.202;2023-08-21T06:17:29;20.60;99.90
3281;DHT22;1652;51.318;6.202;2023-08-21T06:19:56;20.70;99.90
3281;DHT22;1652;51.318;6.202;2023-08-21T06:22:23;20.70;99.90
3281;DHT22;1652;51.318;6.202;2023-08-21T06:24:50;20.70;99.90
3281;DHT22;1652;51.318;6.202;2023-08-21T06:27:17;20.80;99.90
3281;DHT22;1652;51.318;6.202;2023-08-21T06:29:44;20.80;99.90
3281;DHT22;1652;51.318;6.202;2023-08-21T06:32:11;21.20;99.90
3281;DHT22;1652;51.318;6.202;2023-08-21T06:34:37;22.40;99.90
3281;DHT22;1652;51.318;6.202;2023-08-21T06:37:04;23.50;36.20
3281;DHT22;1652;51.318;6.202;2023-08-21T06:39:31;24.40;16.10
3281;DHT22;1652;51.318;6.202;2023-08-21T06:41:58;25.50;1.00
3281;DHT22;1652;51.318;6.202;2023-08-21T06:44:27;26.80;1.00
3281;DHT22;1652;51.318;6.202;2023-08-21T06:46:53;27.20;1.00
3281;DHT22;1652;51.318;6.202;2023-08-21T06:49:20;27.40;99.90
3281;DHT22;1652;51.318;6.202;2023-08-21T06:51:47;27.90;99.90
3281;DHT22;1652;51.318;6.202;2023-08-21T06:54:14;28.30;99.90
3281;DHT22;1652;51.318;6.202;2023-08-21T06:56:41;29.00;1.00
3281;DHT22;1652;51.318;6.202;2023-08-21T06:59:08;29.50;1.00
3281;DHT22;1652;51.318;6.202;2023-08-21T07:01:35;29.80;99.90
3281;DHT22;1652;51.318;6.202;2023-08-21T07:04:02;29.80;1.00
3281;DHT22;1652;51.318;6.202;2023-08-21T07:06:30;30.10;1.00
3281;DHT22;1652;51.318;6.202;2023-08-21T07:08:57;30.30;1.00
3281;DHT22;1652;51.318;6.202;2023-08-21T07:11:24;30.30;99.90
3281;DHT22;1652;51.318;6.202;2023-08-21T07:13:51;29.60;1.00
3281;DHT22;1652;51.318;6.202;2023-08-21T07:16:18;29.50;44.20
3281;DHT22;1652;51.318;6.202;2023-08-21T07:18:45;29.60;99.90
3281;DHT22;1652;51.318;6.202;2023-08-21T07:21:12;30.00;1.00
3281;DHT22;1652;51.318;6.202;2023-08-21T07:23:58;29.90;1.00
3281;DHT22;1652;51.318;6.202;2023-08-21T07:26:25;30.30;1.00
3281;DHT22;1652;51.318;6.202;2023-08-21T07:28:52;30.50;15.10
3281;DHT22;1652;51.318;6.202;2023-08-21T07:31:19;30.20;99.90
3281;DHT22;1652;51.318;6.202;2023-08-21T07:33:46;29.60;1.00
3281;DHT22;1652;51.318;6.202;2023-08-21T07:36:13;29.70;99.90
3281;DHT22;1652;51.318;6.202;2023-08-21T07:38:44;30.10;99.90
3281;DHT22;1652;51.318;6.202;2023-08-21T07:41:12;30.30;99.90
3281;DHT22;1652;51.318;6.202;2023-08-21T07:43:41;30.00;1.00
3281;DHT22;1652;51.318;6.202;2023-08-21T07:46:13;30.00;1.00
3281;DHT22;1652;51.318;6.202;2023-08-21T07:48:43;29.20;1.00
3281;DHT22;1652;51.318;6.202;2023-08-21T07:51:10;29.10;99.90
3281;DHT22;1652;51.318;6.202;2023-08-21T07:53:37;29.40;1.00
3281;DHT22;1652;51.318;6.202;2023-08-21T07:56:04;29.60;97.40
3281;DHT22;1652;51.318;6.202;2023-08-21T07:58:32;30.00;1.00
3281;DHT22;1652;51.318;6.202;2023-08-21T08:00:59;30.10;1.00
3281;DHT22;1652;51.318;6.202;2023-08-21T08:03:28;30.40;32.00
3281;DHT22;1652;51.318;6.202;2023-08-21T08:05:55;30.00;99.90
3281;DHT22;1652;51.318;6.202;2023-08-21T08:08:22;30.00;1.00
3281;DHT22;1652;51.318;6.202;2023-08-21T08:10:49;30.20;99.90
3281;DHT22;1652;51.318;6.202;2023-08-21T08:13:16;30.00;99.90
3281;DHT22;1652;51.318;6.202;2023-08-21T08:15:43;29.40;1.00
3281;DHT22;1652;51.318;6.202;2023-08-21T08:18:13;29.60;1.00
3281;DHT22;1652;51.318;6.202;2023-08-21T08:20:41;29.00;1.00
3281;DHT22;1652;51.318;6.202;2023-08-21T08:23:08;29.00;1.00
3281;DHT22;1652;51.318;6.202;2023-08-21T08:25:35;28.70;1.00
3281;DHT22;1652;51.318;6.202;2023-08-21T08:28:02;28.80;1.00
3281;DHT22;1652;51.318;6.202;2023-08-21T08:30:29;28.90;99.90
3281;DHT22;1652;51.318;6.202;2023-08-21T08:32:56;28.80;1.00
3281;DHT22;1652;51.318;6.202;2023-08-21T08:35:23;28.00;99.90
3281;DHT22;1652;51.318;6.202;2023-08-21T08:37:50;27.50;99.90
3281;DHT22;1652;51.318;6.202;2023-08-21T08:40:19;27.20;1.00
3281;DHT22;1652;51.318;6.202;2023-08-21T08:42:46;27.20;1.00
3281;DHT22;1652;51.318;6.202;2023-08-21T08:45:14;27.60;99.90
3281;DHT22;1652;51.318;6.202;2023-08-21T08:47:41;28.00;1.00
3281;DHT22;1652;51.318;6.202;2023-08-21T08:50:09;28.30;1.00
3281;DHT22;1652;51.318;6.202;2023-08-21T08:52:38;28.20;1.00
3281;DHT22;1652;51.318;6.202;2023-08-21T08:55:06;28.50;40.40
3281;DHT22;1652;51.318;6.202;2023-08-21T08:57:34;29.00;99.90
3281;DHT22;1652;51.318;6.202;2023-08-21T09:00:04;29.00;1.00
3281;DHT22;1652;51.318;6.202;2023-08-21T09:02:31;28.70;99.90
3281;DHT22;1652;51.318;6.202;2023-08-21T09:04:59;28.60;1.00
3281;DHT22;1652;51.318;6.202;2023-08-21T09:07:26;28.40;1.00
3281;DHT22;1652;51.318;6.202;2023-08-21T09:09:53;28.30;90.00
3281;DHT22;1652;51.318;6.202;2023-08-21T09:12:20;28.60;1.00
3281;DHT22;1652;51.318;6.202;2023-08-21T09:14:47;28.70;1.00
3281;DHT22;1652;51.318;6.202;2023-08-21T09:17:15;28.60;99.90
3281;DHT22;1652;51.318;6.202;2023-08-21T09:19:43;28.80;99.90
3281;DHT22;1652;51.318;6.202;2023-08-21T09:22:17;29.00;99.90
3281;DHT22;1652;51.318;6.202;2023-08-21T09:25:07;28.70;99.90
3281;DHT22;1652;51.318;6.202;2023-08-21T09:27:35;27.70;1.00
3281;DHT22;1652;51.318;6.202;2023-08-21T09:30:08;27.20;1.00
3281;DHT22;1652;51.318;6.202;2023-08-21T09:32:55;27.00;1.00
3281;DHT22;1652;51.318;6.202;2023-08-21T09:35:23;26.60;99.90
3281;DHT22;1652;51.318;6.202;2023-08-21T09:37:50;26.40;1.00
3281;DHT22;1652;51.318;6.202;2023-08-21T09:40:21;26.50;99.90
3281;DHT22;1652;51.318;6.202;2023-08-21T09:43:00;26.30;1.00
3281;DHT22;1652;51.318;6.202;2023-08-21T09:45:30;26.20;99.90
3281;DHT22;1652;51.318;6.202;2023-08-21T09:47:57;26.10;47.80
3281;DHT22;1652;51.318;6.202;2023-08-21T09:50:26;26.00;99.90
3281;DHT22;1652;51.318;6.202;2023-08-21T09:52:57;25.80;1.00
3281;DHT22;1652;51.318;6.202;2023-08-21T09:55:25;25.70;1.00
3281;DHT22;1652;51.318;6.202;2023-08-21T09:58:01;25.60;1.00
3281;DHT22;1652;51.318;6.202;2023-08-21T10:00:32;25.80;1.00
3281;DHT22;1652;51.318;6.202;2023-08-21T10:03:02;25.70;1.00
3281;DHT22;1652;51.318;6.202;2023-08-21T10:05:37;25.60;1.00
3281;DHT22;1652;51.318;6.202;2023-08-21T10:10:38;25.60;99.90
3281;DHT22;1652;51.318;6.202;2023-08-21T10:13:07;25.50;1.00
3281;DHT22;1652;51.318;6.202;2023-08-21T10:15:36;25.30;1.00
3281;DHT22;1652;51.318;6.202;2023-08-21T10:20:47;25.50;1.00
3281;DHT22;1652;51.318;6.202;2023-08-21T10:23:28;25.60;1.00
3281;DHT22;1652;51.318;6.202;2023-08-21T10:26:00;25.60;1.00
3281;DHT22;1652;51.318;6.202;2023-08-21T10:31:38;25.40;1.00
3281;DHT22;1652;51.318;6.202;2023-08-21T10:34:08;25.50;1.00
3281;DHT22;1652;51.318;6.202;2023-08-21T10:39:20;25.30;1.00
3281;DHT22;1652;51.318;6.202;2023-08-21T10:41:58;25.30;1.00
3281;DHT22;1652;51.318;6.202;2023-08-21T10:47:17;25.50;1.00
3281;DHT22;1652;51.318;6.202;2023-08-21T10:49:52;25.50;1.00
3281;DHT22;1652;51.318;6.202;2023-08-21T10:52:28;25.50;99.90
3281;DHT22;1652;51.318;6.202;2023-08-21T10:54:57;25.30;99.90
3281;DHT22;1652;51.318;6.202;2023-08-21T10:57:25;25.40;99.90
3281;DHT22;1652;51.318;6.202;2023-08-21T10:59:57;25.40;99.90
3281;DHT22;1652;51.318;6.202;2023-08-21T11:02:28;25.30;1.00
3281;DHT22;1652;51.318;6.202;2023-08-21T11:04:59;25.20;1.00
3281;DHT22;1652;51.318;6.202;2023-08-21T11:07:27;25.30;1.00
3281;DHT22;1652;51.318;6.202;2023-08-21T11:12:57;25.40;99.90
3281;DHT22;1652;51.318;6.202;2023-08-21T11:15:28;25.50;1.00
3281;DHT22;1652;51.318;6.202;2023-08-21T11:17:57;25.50;1.00
3281;DHT22;1652;51.318;6.202;2023-08-21T11:20:34;25.60;1.00
3281;DHT22;1652;51.318;6.202;2023-08-21T11:23:02;25.50;1.00
3281;DHT22;1652;51.318;6.202;2023-08-21T11:25:32;25.60;1.00
3281;DHT22;1652;51.318;6.202;2023-08-21T11:28:00;25.60;1.00
3281;DHT22;1652;51.318;6.202;2023-08-21T11:30:31;25.80;1.00
3281;DHT22;1652;51.318;6.202;2023-08-21T11:33:08;26.10;99.90
3281;DHT22;1652;51.318;6.202;2023-08-21T11:35:36;26.10;1.00
3281;DHT22;1652;51.318;6.202;2023-08-21T11:38:03;26.20;1.00
3281;DHT22;1652;51.318;6.202;2023-08-21T11:40:36;26.40;99.90
3281;DHT22;1652;51.318;6.202;2023-08-21T11:43:04;26.20;99.90
3281;DHT22;1652;51.318;6.202;2023-08-21T11:45:35;26.00;1.00
3281;DHT22;1652;51.318;6.202;2023-08-21T11:48:19;25.90;99.90
3281;DHT22;1652;51.318;6.202;2023-08-21T11:50:48;25.70;1.00
3281;DHT22;1652;51.318;6.202;2023-08-21T11:53:14;25.80;1.00
3281;DHT22;1652;51.318;6.202;2023-08-21T11:55:41;26.00;1.00
3281;DHT22;1652;51.318;6.202;2023-08-21T11:58:08;26.10;1.00
3281;DHT22;1652;51.318;6.202;2023-08-21T12:00:35;26.00;99.90
3281;DHT22;1652;51.318;6.202;2023-08-21T12:03:02;26.10;99.90
3281;DHT22;1652;51.318;6.202;2023-08-21T12:05:33;26.40;1.00
3281;DHT22;1652;51.318;6.202;2023-08-21T12:08:00;26.50;99.90
3281;DHT22;1652;51.318;6.202;2023-08-21T12:10:28;26.60;99.90
3281;DHT22;1652;51.318;6.202;2023-08-21T12:13:12;26.60;99.90
3281;DHT22;1652;51.318;6.202;2023-08-21T12:15:38;26.80;99.90
3281;DHT22;1652;51.318;6.202;2023-08-21T12:18:06;26.90;99.90
3281;DHT22;1652;51.318;6.202;2023-08-21T12:20:33;27.00;1.00
3281;DHT22;1652;51.318;6.202;2023-08-21T12:23:00;27.10;1.00
3281;DHT22;1652;51.318;6.202;2023-08-21T12:25:27;27.30;82.60
3281;DHT22;1652;51.318;6.202;2023-08-21T12:27:54;27.30;99.90
3281;DHT22;1652;51.318;6.202;2023-08-21T12:30:35;27.40;1.00
3281;DHT22;1652;51.318;6.202;2023-08-21T12:43:49;26.30;1.00
3281;DHT22;1652;51.318;6.202;2023-08-21T12:46:16;26.40;99.90
3281;DHT22;1652;51.318;6.202;2023-08-21T12:48:43;26.60;1.00
3281;DHT22;1652;51.318;6.202;2023-08-21T12:51:10;26.70;1.00
3281;DHT22;1652;51.318;6.202;2023-08-21T12:53:37;26.90;99.90
3281;DHT22;1652;51.318;6.202;2023-08-21T12:56:04;27.00;99.90
3281;DHT22;1652;51.318;6.202;2023-08-21T12:58:31;27.10;1.00
3281;DHT22;1652;51.318;6.202;2023-08-21T13:00:59;27.30;99.90
3281;DHT22;1652;51.318;6.202;2023-08-21T13:03:26;27.40;99.90
3281;DHT22;1652;51.318;6.202;2023-08-21T13:05:55;27.40;1.00
3281;DHT22;1652;51.318;6.202;2023-08-21T13:08:22;27.20;99.90
3281;DHT22;1652;51.318;6.202;2023-08-21T13:10:49;27.10;1.00
3281;DHT22;1652;51.318;6.202;2023-08-21T13:13:16;26.80;99.90
3281;DHT22;1652;51.318;6.202;2023-08-21T13:15:42;26.70;1.00
3281;DHT22;1652;51.318;6.202;2023-08-21T13:18:13;26.80;1.00
3281;DHT22;1652;51.318;6.202;2023-08-21T13:20:42;26.80;1.00
3281;DHT22;1652;51.318;6.202;2023-08-21T13:23:09;26.80;82.40
3281;DHT22;1652;51.318;6.202;2023-08-21T13:25:36;26.80;1.00
3281;DHT22;1652;51.318;6.202;2023-08-21T13:28:03;26.70;99.90
3281;DHT22;1652;51.318;6.202;2023-08-21T13:30:30;26.80;99.90
3281;DHT22;1652;51.318;6.202;2023-08-21T13:33:00;27.10;99.90
3281;DHT22;1652;51.318;6.202;2023-08-21T13:35:27;27.10;1.00
3281;DHT22;1652;51.318;6.202;2023-08-21T13:37:54;26.90;99.90
3281;DHT22;1652;51.318;6.202;2023-08-21T13:40:21;26.70;99.90
3281;DHT22;1652;51.318;6.202;2023-08-21T13:45:31;26.80;75.30
3281;DHT22;1652;51.318;6.202;2023-08-21T13:47:58;26.80;1.00
3281;DHT22;1652;51.318;6.202;2023-08-21T13:50:25;26.60;99.90
3281;DHT22;1652;51.318;6.202;2023-08-21T13:52:51;26.50;99.90
3281;DHT22;1652;51.318;6.202;2023-08-21T13:55:18;26.50;99.90
3281;DHT22;1652;51.318;6.202;2023-08-21T13:57:45;26.50;99.90
3281;DHT22;1652;51.318;6.202;2023-08-21T14:00:12;26.60;99.90
3281;DHT22;1652;51.318;6.202;2023-08-21T14:02:40;26.60;1.00
3281;DHT22;1652;51.318;6.202;2023-08-21T14:05:09;26.50;99.90
3281;DHT22;1652;51.318;6.202;2023-08-21T14:07:37;26.60;99.90
3281;DHT22;1652;51.318;6.202;2023-08-21T14:10:05;26.60;99.90
3281;DHT22;1652;51.318;6.202;2023-08-21T14:12:32;26.70;99.90
3281;DHT22;1652;51.318;6.202;2023-08-21T14:14:59;26.80;1.00
3281;DHT22;1652;51.318;6.202;2023-08-21T14:17:27;26.80;99.90
3281;DHT22;1652;51.318;6.202;2023-08-21T14:19:54;26.70;99.90
3281;DHT22;1652;51.318;6.202;2023-08-21T14:22:21;26.60;1.00
3281;DHT22;1652;51.318;6.202;2023-08-21T14:24:48;26.70;22.10
3281;DHT22;1652;51.318;6.202;2023-08-21T14:27:15;26.60;1.00
3281;DHT22;1652;51.318;6.202;2023-08-21T14:29:43;26.40;1.00
3281;DHT22;1652;51.318;6.202;2023-08-21T14:32:13;26.20;99.90
3281;DHT22;1652;51.318;6.202;2023-08-21T14:34:40;26.10;99.90
3281;DHT22;1652;51.318;6.202;2023-08-21T14:37:07;26.00;99.90
3281;DHT22;1652;51.318;6.202;2023-08-21T14:39:34;26.10;99.90
3281;DHT22;1652;51.318;6.202;2023-08-21T14:42:01;26.00;99.90
3281;DHT22;1652;51.318;6.202;2023-08-21T14:44:28;26.00;94.80
3281;DHT22;1652;51.318;6.202;2023-08-21T14:46:55;26.00;99.90
3281;DHT22;1652;51.318;6.202;2023-08-21T14:49:27;26.00;99.90
3281;DHT22;1652;51.318;6.202;2023-08-21T14:51:54;26.10;99.90
3281;DHT22;1652;51.318;6.202;2023-08-21T14:54:21;26.20;1.00
3281;DHT22;1652;51.318;6.202;2023-08-21T14:56:48;26.30;1.00
3281;DHT22;1652;51.318;6.202;2023-08-21T14:59:15;26.20;59.00
3281;DHT22;1652;51.318;6.202;2023-08-21T15:01:42;26.30;99.90
3281;DHT22;1652;51.318;6.202;2023-08-21T15:04:09;26.30;99.90
3281;DHT22;1652;51.318;6.202;2023-08-21T15:06:38;26.40;9.50
3281;DHT22;1652;51.318;6.202;2023-08-21T15:09:08;26.50;97.10
3281;DHT22;1652;51.318;6.202;2023-08-21T15:11:35;26.70;1.00
3281;DHT22;1652;51.318;6.202;2023-08-21T15:14:02;26.70;1.00
3281;DHT22;1652;51.318;6.202;2023-08-21T15:16:30;26.90;99.90
3281;DHT22;1652;51.318;6.202;2023-08-21T15:18:57;26.80;99.90
3281;DHT22;1652;51.318;6.202;2023-08-21T15:21:25;26.70;1.00
3281;DHT22;1652;51.318;6.202;2023-08-21T15:23:52;26.70;1.00
3281;DHT22;1652;51.318;6.202;2023-08-21T15:26:19;26.70;99.90
3281;DHT22;1652;51.318;6.202;2023-08-21T15:28:47;26.60;99.90
3281;DHT22;1652;51.318;6.202;2023-08-21T15:31:19;26.60;99.90
3281;DHT22;1652;51.318;6.202;2023-08-21T15:33:46;26.60;99.90
3281;DHT22;1652;51.318;6.202;2023-08-21T15:36:16;26.50;1.00
3281;DHT22;1652;51.318;6.202;2023-08-21T15:38:43;26.40;99.90
3281;DHT22;1652;51.318;6.202;2023-08-21T15:41:11;26.40;99.90
3281;DHT22;1652;51.318;6.202;2023-08-21T15:43:38;26.50;99.90
3281;DHT22;1652;51.318;6.202;2023-08-21T15:46:05;26.40;1.00
3281;DHT22;1652;51.318;6.202;2023-08-21T15:48:33;26.30;1.00
3281;DHT22;1652;51.318;6.202;2023-08-21T15:51:01;26.20;79.40
3281;DHT22;1652;51.318;6.202;2023-08-21T15:53:30;26.40;15.30
3281;DHT22;1652;51.318;6.202;2023-08-21T15:55:57;26.40;10.80
3281;DHT22;1652;51.318;6.202;2023-08-21T15:58:24;26.40;1.00
3281;DHT22;1652;51.318;6.202;2023-08-21T16:00:51;26.40;40.00
3281;DHT22;1652;51.318;6.202;2023-08-21T16:03:18;26.40;99.90
3281;DHT22;1652;51.318;6.202;2023-08-21T16:05:45;26.50;67.70
3281;DHT22;1652;51.318;6.202;2023-08-21T16:08:12;26.50;1.00
3281;DHT22;1652;51.318;6.202;2023-08-21T16:10:39;26.60;1.00
3281;DHT22;1652;51.318;6.202;2023-08-21T16:13:06;26.70;99.90
3281;DHT22;1652;51.318;6.202;2023-08-21T16:15:33;26.70;99.90
3281;DHT22;1652;51.318;6.202;2023-08-21T16:18:00;26.60;99.90
3281;DHT22;1652;51.318;6.202;2023-08-21T16:20:27;26.40;1.00
3281;DHT22;1652;51.318;6.202;2023-08-21T16:22:55;26.40;1.00
3281;DHT22;1652;51.318;6.202;2023-08-21T16:25:22;26.50;1.00
3281;DHT22;1652;51.318;6.202;2023-08-21T16:27:49;26.40;99.90
3281;DHT22;1652;51.318;6.202;2023-08-21T16:30:16;26.20;99.90
3281;DHT22;1652;51.318;6.202;2023-08-21T16:32:43;26.10;47.10
3281;DHT22;1652;51.318;6.202;2023-08-21T16:35:10;26.10;99.90
3281;DHT22;1652;51.318;6.202;2023-08-21T16:37:37;26.00;1.00
3281;DHT22;1652;51.318;6.202;2023-08-21T16:40:05;26.10;90.20
3281;DHT22;1652;51.318;6.202;2023-08-21T16:42:35;26.00;99.90
3281;DHT22;1652;51.318;6.202;2023-08-21T16:45:09;26.00;99.90